Time;durP1;ratioP1;P1;durP2;ratioP2;P2;SDS_P1;SDS_P2;PMS_P1;PMS_P2;Temp;Humidity;BMP_temperature;BMP_pressure;BME280_temperature;BME280_humidity;BME280_pressure;Samples;Min_cycle;Max_cycle;Signal;HPM_P1;HPM_P2
2023/12/01 00:00:34;;;;;;;57.40;23.67;;;-0.70;99.90;;;0.23;100.00;99554.50;5018818;28;20065;-85
2023/12/01 00:02:59;;;;;;;57.83;24.30;;;-0.70;99.90;;;0.16;100.00;99547.31;5013483;28;20036;-85
2023/12/01 00:05:25;;;;;;;61.78;23.95;;;-0.70;99.90;;;-0.18;100.00;99536.75;5015235;28;20099;-85
2023/12/01 00:07:51;;;;;;;51.47;23.45;;;-0.70;99.90;;;-0.04;100.00;99555.78;5021408;28;20371;-85
2023/12/01 00:10:16;;;;;;;58.17;23.77;;;-0.70;99.90;;;0.06;100.00;99547.53;5029866;28;20030;-87
2023/12/01 00:12:42;;;;;;;52.38;22.88;;;-0.70;99.90;;;0.35;100.00;99557.63;5025559;28;20394;-84
2023/12/01 00:15:08;;;;;;;63.83;24.45;;;-0.70;99.90;;;0.25;100.00;99559.66;5022619;28;20049;-83
2023/12/01 00:17:34;;;;;;;56.60;24.33;;;-0.70;99.90;;;0.30;100.00;99562.69;5019634;28;20030;-84
2023/12/01 00:20:00;;;;;;;57.25;23.90;;;-0.60;99.90;;;0.55;100.00;99568.72;5016924;28;20039;-85
2023/12/01 00:22:26;;;;;;;55.75;22.50;;;-0.60;99.90;;;0.65;100.00;99555.06;5023013;28;20488;-85
2023/12/01 00:24:52;;;;;;;55.55;23.70;;;-0.60;99.90;;;0.46;100.00;99560.91;5023431;28;20037;-85
2023/12/01 00:27:17;;;;;;;54.38;22.83;;;-0.60;99.90;;;0.46;100.00;99568.94;5029024;28;20044;-83
2023/12/01 00:29:44;;;;;;;61.25;24.55;;;-0.60;99.90;;;0.38;100.00;99573.34;5023808;28;20091;-85
2023/12/01 00:32:09;;;;;;;52.80;24.52;;;-0.60;99.90;;;0.35;100.00;99573.72;5030351;28;20112;-85
2023/12/01 00:34:35;;;;;;;58.85;23.83;;;-0.60;99.90;;;0.34;100.00;99577.41;5020140;28;20127;-85
2023/12/01 00:37:01;;;;;;;56.78;23.55;;;-0.50;99.90;;;0.43;100.00;99579.03;5015361;28;20046;-85
2023/12/01 00:39:27;;;;;;;58.72;24.02;;;-0.50;99.90;;;0.65;100.00;99576.53;5018276;28;20039;-84
2023/12/01 00:41:53;;;;;;;56.42;24.35;;;-0.50;99.90;;;0.69;100.00;99575.19;5018023;28;20041;-84
2023/12/01 00:44:18;;;;;;;56.67;23.60;;;-0.40;99.90;;;0.73;100.00;99583.72;5016243;28;20038;-85
2023/12/01 00:46:44;;;;;;;63.13;23.58;;;-0.40;99.90;;;0.53;100.00;99586.84;5014469;28;20046;-85
2023/12/01 00:49:11;;;;;;;62.90;24.75;;;-0.40;99.90;;;0.55;100.00;99570.59;5019922;28;20069;-85
2023/12/01 00:51:41;;;;;;;56.25;23.98;;;-0.40;99.90;;;0.49;100.00;99595.44;5017088;28;20054;-85
2023/12/01 00:54:07;;;;;;;55.45;24.38;;;-0.40;99.90;;;0.77;100.00;99587.72;5028842;28;20089;-85
2023/12/01 00:56:33;;;;;;;57.22;24.20;;;-0.40;99.90;;;0.52;100.00;99587.88;5013734;28;20397;-85
2023/12/01 00:58:59;;;;;;;54.35;23.30;;;-0.40;99.90;;;0.53;100.00;99594.91;5017817;28;20038;-85
2023/12/01 01:01:24;;;;;;;59.25;23.90;;;-0.40;99.90;;;0.66;100.00;99599.69;5028120;28;20048;-84
2023/12/01 01:03:50;;;;;;;58.08;24.33;;;-0.40;99.90;;;0.77;100.00;99597.59;5019905;28;20034;-84
2023/12/01 01:06:16;;;;;;;58.65;24.63;;;-0.40;99.90;;;0.56;100.00;99599.91;5017554;28;20026;-84
2023/12/01 01:08:41;;;;;;;56.75;24.23;;;-0.40;99.90;;;0.72;100.00;99603.53;5014437;28;20046;-84
2023/12/01 01:11:07;;;;;;;59.38;25.50;;;-0.40;99.90;;;0.69;100.00;99604.72;5014997;28;20030;-85
2023/12/01 01:13:33;;;;;;;61.05;24.73;;;-0.40;99.90;;;0.75;100.00;99602.31;5014361;28;20145;-84
2023/12/01 01:15:59;;;;;;;59.75;25.20;;;-0.40;99.90;;;0.78;100.00;99605.50;5024473;28;20049;-84
2023/12/01 01:18:25;;;;;;;61.00;24.58;;;-0.40;99.90;;;0.37;100.00;99603.03;5022223;28;20078;-85
2023/12/01 01:20:51;;;;;;;61.78;24.95;;;-0.40;99.90;;;0.46;100.00;99601.16;5016345;28;20104;-85
2023/12/01 01:23:17;;;;;;;54.28;22.38;;;-0.40;99.90;;;0.62;100.00;99613.66;5021362;28;20056;-85
2023/12/01 01:25:43;;;;;;;55.90;23.05;;;-0.40;99.90;;;0.60;100.00;99603.09;5023596;28;20034;-85
2023/12/01 01:28:09;;;;;;;57.47;24.58;;;-0.40;99.90;;;0.54;100.00;99591.22;5012572;28;20049;-85
2023/12/01 01:30:35;;;;;;;60.90;24.10;;;-0.40;99.90;;;0.51;100.00;99599.63;5033311;28;20036;-85
2023/12/01 01:33:01;;;;;;;57.78;23.42;;;-0.40;99.90;;;0.56;100.00;99607.16;5016784;28;20486;-85
2023/12/01 01:35:27;;;;;;;57.75;23.40;;;-0.40;99.90;;;0.41;100.00;99602.53;5025958;28;20029;-85
2023/12/01 01:37:52;;;;;;;56.20;23.65;;;-0.50;99.90;;;0.75;100.00;99602.31;5019991;28;20038;-84
2023/12/01 01:40:18;;;;;;;59.05;23.95;;;-0.40;99.90;;;0.78;100.00;99594.75;5022156;28;20107;-85
2023/12/01 01:42:44;;;;;;;53.05;23.58;;;-0.40;99.90;;;0.92;100.00;99606.56;5013331;28;20042;-84
2023/12/01 01:45:10;;;;;;;54.10;22.50;;;-0.40;99.90;;;0.83;100.00;99610.34;5013025;28;20030;-84
2023/12/01 01:47:36;;;;;;;56.78;23.30;;;-0.40;99.90;;;0.90;100.00;99605.91;5012353;28;20053;-85
2023/12/01 01:50:03;;;;;;;55.28;22.60;;;-0.40;99.90;;;0.92;100.00;99611.94;5022948;28;20034;-85
2023/12/01 01:52:29;;;;;;;64.40;24.17;;;-0.40;99.90;;;0.71;100.00;99610.72;5013064;28;20048;-85
2023/12/01 01:54:56;;;;;;;64.70;23.65;;;-0.40;99.90;;;0.68;100.00;99623.69;5019765;28;20065;-85
2023/12/01 01:57:22;;;;;;;56.90;22.42;;;-0.40;99.90;;;0.61;100.00;99631.63;5015008;28;20056;-85
2023/12/01 01:59:49;;;;;;;55.58;22.30;;;-0.40;99.90;;;0.45;100.00;99621.81;5013296;28;20092;-85
2023/12/01 02:02:14;;;;;;;57.97;23.55;;;-0.40;99.90;;;0.47;100.00;99622.47;5015909;28;20053;-85
2023/12/01 02:04:40;;;;;;;60.72;24.60;;;-0.40;99.90;;;0.66;100.00;99631.91;5029476;28;20073;-85
2023/12/01 02:07:08;;;;;;;61.40;23.38;;;-0.40;99.90;;;0.68;100.00;99629.06;5019515;28;20100;-84
2023/12/01 02:09:34;;;;;;;62.72;23.52;;;-0.40;99.90;;;0.65;100.00;99630.25;5014038;28;20481;-85
2023/12/01 02:12:01;;;;;;;59.75;23.65;;;-0.30;99.90;;;0.66;100.00;99634.59;5024949;28;20057;-85
2023/12/01 02:14:26;;;;;;;54.97;23.40;;;-0.40;99.90;;;0.65;100.00;99632.06;5024563;28;20084;-85
2023/12/01 02:16:52;;;;;;;55.70;21.33;;;-0.40;99.90;;;0.74;100.00;99635.56;5004891;28;20046;-85
2023/12/01 02:19:18;;;;;;;53.70;22.27;;;-0.40;99.90;;;0.77;100.00;99636.03;4998024;28;20126;-85
2023/12/01 02:21:46;;;;;;;58.22;22.27;;;-0.30;99.90;;;0.78;100.00;99635.03;5011474;28;20034;-85
2023/12/01 02:24:12;;;;;;;54.35;21.85;;;-0.30;99.90;;;0.79;100.00;99634.00;5011765;28;20069;-85
2023/12/01 02:26:38;;;;;;;55.55;23.15;;;-0.30;99.90;;;0.72;100.00;99635.75;5022972;28;20037;-85
2023/12/01 02:29:05;;;;;;;51.83;22.00;;;-0.30;99.90;;;0.69;100.00;99625.38;5015721;28;20037;-84
2023/12/01 02:31:31;;;;;;;53.92;22.55;;;-0.40;99.90;;;0.80;100.00;99642.94;5012205;28;20124;-84
2023/12/01 02:33:58;;;;;;;54.28;20.92;;;-0.30;99.90;;;0.80;100.00;99642.94;5023616;28;20084;-85
2023/12/01 02:36:24;;;;;;;58.50;22.70;;;-0.30;99.90;;;0.67;100.00;99636.28;5012049;28;20052;-84
2023/12/01 02:38:50;;;;;;;51.65;21.08;;;-0.30;99.90;;;0.75;100.00;99640.75;5021336;28;20030;-84
2023/12/01 02:41:17;;;;;;;55.17;22.33;;;-0.30;99.90;;;0.69;100.00;99646.84;5017267;28;20053;-84
2023/12/01 02:43:44;;;;;;;49.67;20.95;;;-0.40;99.90;;;0.63;100.00;99639.47;5026743;28;20470;-85
2023/12/01 02:46:13;;;;;;;57.88;23.83;;;-0.40;99.90;;;0.89;100.00;99639.16;5010122;28;20441;-84
2023/12/01 02:48:40;;;;;;;51.50;21.63;;;-0.40;99.90;;;0.97;100.00;99625.66;5011890;28;20453;-84
2023/12/01 02:51:07;;;;;;;49.05;20.98;;;-0.30;99.90;;;0.95;100.00;99634.94;5015756;28;20132;-84
2023/12/01 02:53:34;;;;;;;55.85;22.55;;;-0.30;99.90;;;1.03;100.00;99637.56;5017203;28;20026;-84
2023/12/01 02:56:01;;;;;;;54.30;21.33;;;-0.30;99.90;;;0.86;100.00;99629.59;5017317;28;20207;-84
2023/12/01 02:58:26;;;;;;;58.42;22.95;;;-0.30;99.90;;;0.82;100.00;99632.84;5023609;28;20475;-84
2023/12/01 03:00:52;;;;;;;53.97;21.20;;;-0.30;99.90;;;0.60;100.00;99638.00;5012051;28;20049;-84
2023/12/01 03:03:18;;;;;;;54.15;22.92;;;-0.30;99.90;;;0.30;100.00;99631.59;5012029;28;20045;-84
2023/12/01 03:05:44;;;;;;;52.17;21.55;;;-0.40;99.90;;;0.55;100.00;99630.47;5023342;28;20412;-84
2023/12/01 03:08:09;;;;;;;59.60;21.60;;;-0.40;99.90;;;0.49;100.00;99633.00;5021941;28;20508;-84
2023/12/01 03:10:37;;;;;;;57.00;23.20;;;-0.40;99.90;;;0.51;100.00;99631.84;5018486;28;20038;-84
2023/12/01 03:13:03;;;;;;;53.65;21.98;;;-0.40;99.90;;;0.51;100.00;99634.50;5011530;28;20051;-84
2023/12/01 03:15:29;;;;;;;53.42;21.00;;;-0.40;99.90;;;0.39;100.00;99630.53;5023187;28;20080;-84
2023/12/01 03:17:55;;;;;;;56.88;23.02;;;-0.50;99.90;;;0.46;100.00;99639.59;5040890;28;20061;-84
2023/12/01 03:20:21;;;;;;;54.28;21.67;;;-0.50;99.90;;;0.24;100.00;99643.84;5012936;28;20156;-85
2023/12/01 03:22:50;;;;;;;54.85;21.70;;;-0.50;99.90;;;0.31;100.00;99639.47;5017697;28;20065;-84
2023/12/01 03:25:17;;;;;;;55.65;21.95;;;-0.50;99.90;;;0.34;100.00;99628.41;5014828;28;20106;-85
2023/12/01 03:27:45;;;;;;;48.47;21.10;;;-0.50;99.90;;;0.45;100.00;99639.75;5018697;28;20029;-85
2023/12/01 03:30:15;;;;;;;48.03;20.17;;;-0.50;99.90;;;0.21;100.00;99650.41;5018842;28;20076;-84
2023/12/01 03:32:46;;;;;;;48.35;20.40;;;-0.50;99.90;;;0.09;100.00;99647.28;5021557;28;20066;-84
2023/12/01 03:35:13;;;;;;;48.35;21.52;;;-0.50;99.90;;;0.03;100.00;99644.44;5031752;28;20113;-84
2023/12/01 03:37:40;;;;;;;49.53;20.75;;;-0.50;99.90;;;0.12;100.00;99651.44;5011379;28;20038;-84
2023/12/01 03:40:12;;;;;;;51.28;20.92;;;-0.60;99.90;;;0.18;100.00;99655.28;5010782;28;20582;-84
2023/12/01 03:42:46;;;;;;;52.22;20.80;;;-0.60;99.90;;;0.34;100.00;99655.22;5025854;28;20030;-84
2023/12/01 03:45:13;;;;;;;50.00;20.15;;;-0.60;99.90;;;0.36;100.00;99660.41;5019036;28;20167;-84
2023/12/01 03:47:42;;;;;;;46.40;19.85;;;-0.50;99.90;;;0.40;100.00;99665.25;5018674;28;20397;-84
2023/12/01 03:50:11;;;;;;;45.47;19.13;;;-0.50;99.90;;;0.16;100.00;99666.22;5025245;28;20042;-84
2023/12/01 03:52:43;;;;;;;45.88;18.85;;;-0.50;99.90;;;0.30;100.00;99669.16;5025889;28;20034;-84
2023/12/01 03:55:10;;;;;;;48.85;20.42;;;-0.60;99.90;;;0.22;100.00;99670.03;5014856;28;20034;-83
2023/12/01 03:57:38;;;;;;;45.92;19.52;;;-0.60;99.90;;;0.24;100.00;99659.94;5020950;28;20385;-84
2023/12/01 04:00:10;;;;;;;49.53;19.45;;;-0.60;99.90;;;0.37;100.00;99659.41;5014854;28;20042;-85
2023/12/01 04:02:42;;;;;;;43.92;18.85;;;-0.60;99.90;;;0.26;100.00;99674.03;5029881;28;20042;-84
2023/12/01 04:05:21;;;;;;;44.08;18.73;;;-0.60;99.90;;;0.27;100.00;99676.53;5019723;28;20116;-84
2023/12/01 04:07:51;;;;;;;50.33;19.55;;;-0.60;99.90;;;0.17;100.00;99680.44;5015154;28;20045;-84
2023/12/01 04:10:17;;;;;;;46.25;19.50;;;-0.60;99.90;;;-0.47;100.00;99666.84;5026149;28;20030;-83
2023/12/01 04:12:44;;;;;;;46.85;19.98;;;-0.80;99.90;;;-0.13;100.00;99674.81;5015738;28;20033;-83
2023/12/01 04:15:14;;;;;;;50.50;20.42;;;-0.80;99.90;;;-0.18;100.00;99681.53;5017804;28;20030;-83
2023/12/01 04:17:42;;;;;;;51.00;19.98;;;-0.80;99.90;;;-0.23;100.00;99675.84;5028255;28;20103;-83
2023/12/01 04:20:27;;;;;;;51.22;19.58;;;-0.90;99.90;;;-0.94;100.00;99681.69;5017563;28;20062;-82
2023/12/01 04:22:57;;;;;;;50.67;19.40;;;-1.00;99.90;;;-0.71;100.00;99664.16;5015607;28;20116;-83
2023/12/01 04:25:22;;;;;;;46.17;18.85;;;-1.10;99.90;;;-0.66;100.00;99669.84;5019986;28;20030;-83
2023/12/01 04:27:50;;;;;;;51.40;18.25;;;-1.10;99.90;;;-0.93;100.00;99674.53;5029525;28;20152;-83
2023/12/01 04:30:17;;;;;;;51.03;19.40;;;-1.20;99.90;;;-1.06;100.00;99677.69;5013891;28;20030;-84
2023/12/01 04:32:45;;;;;;;54.25;18.55;;;-1.30;99.90;;;-0.73;100.00;99673.22;5022439;28;20071;-84
2023/12/01 04:35:12;;;;;;;51.63;19.85;;;-1.30;99.90;;;-0.64;100.00;99673.19;5020328;28;20070;-84
2023/12/01 04:37:44;;;;;;;45.90;20.67;;;-1.30;99.90;;;-0.53;100.00;99683.59;5034035;28;20041;-85
2023/12/01 04:40:14;;;;;;;47.15;20.27;;;-1.30;99.90;;;-0.57;100.00;99679.56;5023778;28;20489;-84
2023/12/01 04:42:49;;;;;;;48.15;19.77;;;-1.30;99.90;;;-0.63;100.00;99690.94;5014293;28;20033;-84
2023/12/01 04:45:25;;;;;;;48.25;19.63;;;-1.30;99.90;;;-1.03;100.00;99680.03;5019903;28;20042;-83
2023/12/01 04:47:54;;;;;;;41.75;17.08;;;-1.30;99.90;;;-0.70;100.00;99689.94;5021557;28;20037;-84
2023/12/01 04:50:31;;;;;;;49.75;18.10;;;-1.30;99.90;;;-0.66;100.00;99681.41;5014810;28;20038;-84
2023/12/01 04:53:01;;;;;;;37.55;15.38;;;-1.30;99.90;;;-0.81;100.00;99699.16;5019537;28;20113;-84
2023/12/01 04:55:30;;;;;;;36.70;15.65;;;-1.30;99.90;;;-1.06;100.00;99699.94;5031384;28;20112;-83
2023/12/01 04:57:56;;;;;;;46.55;18.25;;;-1.40;99.90;;;-1.19;100.00;99700.44;5021283;28;20038;-83
2023/12/01 05:00:26;;;;;;;48.92;18.33;;;-1.50;99.90;;;-1.02;100.00;99709.31;5022549;28;20394;-84
2023/12/01 05:03:10;;;;;;;49.65;18.98;;;-1.50;99.90;;;-1.20;100.00;99703.25;5020167;28;20049;-86
2023/12/01 05:05:41;;;;;;;42.72;16.63;;;-1.50;99.90;;;-1.27;100.00;99704.91;5026484;28;20042;-84
2023/12/01 05:08:09;;;;;;;55.90;21.38;;;-1.50;99.90;;;-1.35;100.00;99706.53;5042259;28;20029;-86
2023/12/01 05:10:37;;;;;;;52.00;19.83;;;-1.50;99.90;;;-1.51;100.00;99715.34;5019986;28;20053;-85
2023/12/01 05:13:06;;;;;;;;;;;-1.60;99.90;;;-1.40;100.00;99711.53;5021424;28;20070;-84
2023/12/01 05:15:35;;;;;;;51.92;19.80;;;-1.60;99.90;;;-1.45;100.00;99706.69;5017940;28;19917;-85
2023/12/01 05:18:07;;;;;;;45.28;16.48;;;-1.70;99.90;;;-1.69;100.00;99707.41;5033540;28;20448;-85
2023/12/01 05:20:33;;;;;;;49.85;17.05;;;-1.70;99.90;;;-1.90;100.00;99697.13;5014798;28;20155;-84
2023/12/01 05:23:07;;;;;;;51.58;18.73;;;-1.80;99.90;;;-1.71;100.00;99700.56;5029841;28;20110;-83
2023/12/01 05:25:33;;;;;;;58.45;19.85;;;-1.80;99.90;;;-1.58;100.00;99697.44;5029448;28;20038;-84
2023/12/01 05:28:02;;;;;;;59.95;19.90;;;-1.80;99.90;;;-1.69;100.00;99687.88;5025597;28;20038;-81
2023/12/01 05:30:33;;;;;;;57.83;20.48;;;-1.80;99.90;;;-1.57;100.00;99704.47;5022262;28;20045;-80
2023/12/01 05:32:59;;;;;;;64.28;20.55;;;-1.80;99.90;;;-1.17;100.00;99701.09;5018686;28;20038;-81
2023/12/01 05:35:26;;;;;;;57.60;19.33;;;-1.80;99.90;;;-1.56;100.00;99714.19;5023560;28;20037;-82
2023/12/01 05:37:56;;;;;;;62.25;19.92;;;-1.80;99.90;;;-1.35;100.00;99719.09;5014855;28;20041;-81
2023/12/01 05:40:30;;;;;;;48.20;16.80;;;-1.80;99.90;;;-1.56;100.00;99716.84;5019709;28;20033;-83
2023/12/01 05:42:58;;;;;;;54.60;19.77;;;-1.80;99.90;;;-1.33;100.00;99723.31;5018954;28;20500;-82
2023/12/01 05:45:29;;;;;;;60.80;21.10;;;-1.80;99.90;;;-1.18;100.00;99725.34;5018037;28;20394;-82
2023/12/01 05:47:56;;;;;;;60.80;19.35;;;-1.80;99.90;;;-1.59;100.00;99723.34;5012845;28;20054;-82
2023/12/01 05:50:29;;;;;;;53.17;18.83;;;-1.80;99.90;;;-1.38;100.00;99714.06;5012041;28;20042;-82
2023/12/01 05:52:59;;;;;;;47.00;17.15;;;-1.80;99.90;;;-1.23;100.00;99725.81;5004708;28;20046;-84
2023/12/01 05:55:29;;;;;;;45.47;17.00;;;-1.80;99.90;;;-0.93;100.00;99728.94;5016587;28;20026;-82
2023/12/01 05:57:58;;;;;;;42.28;16.17;;;-1.70;99.90;;;-0.85;100.00;99724.59;5018163;28;20033;-82
2023/12/01 06:00:29;;;;;;;48.63;19.48;;;-1.70;99.90;;;-0.94;100.00;99727.22;5036139;28;20405;-82
2023/12/01 06:02:58;;;;;;;55.95;20.02;;;-1.70;99.90;;;-1.15;100.00;99730.38;5024919;28;20156;-83
2023/12/01 06:05:24;;;;;;;53.45;18.90;;;-1.70;99.90;;;-1.14;100.00;99725.88;5021986;28;20053;-82
2023/12/01 06:07:54;;;;;;;50.28;18.48;;;-1.70;99.90;;;-1.35;100.00;99727.94;5013520;28;20038;-81
2023/12/01 06:10:22;;;;;;;45.95;16.85;;;-1.60;99.90;;;-1.35;100.00;99733.31;5013632;28;20121;-81
2023/12/01 06:12:48;;;;;;;48.20;18.23;;;-1.60;99.90;;;-1.47;100.00;99730.06;5019641;28;20121;-84
2023/12/01 06:15:16;;;;;;;39.95;16.00;;;-1.60;99.90;;;-1.63;100.00;99730.84;5021407;28;20041;-83
2023/12/01 06:17:52;;;;;;;45.38;17.55;;;-1.60;99.90;;;-1.45;100.00;99740.63;5020253;28;20032;-80
2023/12/01 06:20:22;;;;;;;39.53;15.60;;;-1.60;99.90;;;-1.70;100.00;99735.16;5024768;28;20382;-80
2023/12/01 06:22:56;;;;;;;44.80;16.33;;;-1.60;99.90;;;-1.67;100.00;99737.50;5016100;28;20046;-81
2023/12/01 06:25:28;;;;;;;46.53;15.98;;;-1.60;99.90;;;-1.71;100.00;99740.69;5015748;28;20068;-80
2023/12/01 06:28:02;;;;;;;47.60;18.02;;;-1.70;99.90;;;-1.26;100.00;99754.78;5015290;28;20037;-81
2023/12/01 06:30:34;;;;;;;41.13;17.73;;;-1.70;99.90;;;-0.93;100.00;99750.34;5025691;28;20053;-82
2023/12/01 06:33:02;;;;;;;47.00;18.50;;;-1.70;99.90;;;-0.87;100.00;99754.19;5026994;28;20072;-80
2023/12/01 06:35:28;;;;;;;50.05;19.23;;;-1.60;99.90;;;-0.94;100.00;99761.22;5024441;28;20093;-80
2023/12/01 06:37:54;;;;;;;45.05;18.67;;;-1.60;99.90;;;-0.92;100.00;99761.88;5012668;28;20038;-81
2023/12/01 06:40:20;;;;;;;49.75;19.63;;;-1.60;99.90;;;-0.83;100.00;99768.94;5010809;28;20041;-81
2023/12/01 06:42:51;;;;;;;51.03;18.20;;;-1.60;99.90;;;-0.93;100.00;99760.22;5020927;28;20069;-80
2023/12/01 06:45:19;;;;;;;47.78;18.77;;;-1.60;99.90;;;-0.77;100.00;99767.44;5017186;28;20040;-80
2023/12/01 06:47:48;;;;;;;43.97;16.15;;;-1.60;99.90;;;-1.55;100.00;99778.22;5015328;28;20363;-81
2023/12/01 06:50:16;;;;;;;45.78;17.27;;;-1.60;99.90;;;-1.63;100.00;99770.97;5010703;28;20022;-80
2023/12/01 06:52:47;;;;;;;44.13;17.08;;;-1.80;99.90;;;-1.50;100.00;99769.72;5017561;28;20073;-79
2023/12/01 06:55:13;;;;;;;46.65;17.75;;;-1.80;99.90;;;-1.27;100.00;99769.16;5020752;28;20485;-80
2023/12/01 06:57:42;;;;;;;44.17;17.25;;;-1.80;99.90;;;-1.33;100.00;99782.19;5013631;28;20164;-80
2023/12/01 07:00:29;;;;;;;40.90;15.50;;;-1.80;99.90;;;-1.85;100.00;99782.22;5011036;28;20046;-80
2023/12/01 07:02:59;;;;;;;38.22;15.70;;;-1.90;99.90;;;-1.24;100.00;99787.56;5018474;28;20041;-81
2023/12/01 07:05:31;;;;;;;42.40;16.08;;;-1.90;99.90;;;-1.15;100.00;99791.94;5025426;28;20030;-81
2023/12/01 07:07:58;;;;;;;39.97;15.85;;;-1.90;99.90;;;-1.00;100.00;99807.41;5012595;28;20049;-82
2023/12/01 07:10:25;;;;;;;44.53;17.52;;;-1.80;99.90;;;-1.19;100.00;99814.69;5011735;28;20490;-82
2023/12/01 07:12:54;;;;;;;42.07;16.27;;;-1.80;99.90;;;-1.19;100.00;99815.53;5017387;28;20159;-80
2023/12/01 07:15:24;;;;;;;38.83;13.63;;;-1.80;99.90;;;-1.77;100.00;99819.72;5020630;28;20041;-80
2023/12/01 07:17:53;;;;;;;35.30;13.43;;;-1.90;99.90;;;-1.77;100.00;99817.03;5016551;28;20037;-81
2023/12/01 07:20:20;;;;;;;37.00;14.93;;;-2.00;99.90;;;-1.23;100.00;99818.69;5011788;28;20474;-81
2023/12/01 07:22:48;;;;;;;36.67;14.60;;;-2.00;99.90;;;-1.53;100.00;99821.69;5015888;28;20191;-80
2023/12/01 07:25:22;;;;;;;28.50;11.73;;;-2.00;99.90;;;-1.99;100.00;99824.56;5012875;28;20051;-80
2023/12/01 07:27:57;;;;;;;33.47;12.32;;;-2.00;99.90;;;-1.74;100.00;99827.41;5018094;28;20053;-80
2023/12/01 07:30:24;;;;;;;31.05;12.88;;;-2.00;99.90;;;-2.00;100.00;99830.06;5017736;28;20389;-80
2023/12/01 07:32:53;;;;;;;32.97;13.60;;;-2.10;99.90;;;-2.12;100.00;99830.31;5021866;28;20505;-80
2023/12/01 07:35:18;;;;;;;29.60;11.73;;;-2.10;99.90;;;-2.20;100.00;99839.09;5021764;28;20037;-80
2023/12/01 07:37:48;;;;;;;33.60;13.50;;;-2.20;99.90;;;-2.49;100.00;99839.34;5019590;28;20033;-80
2023/12/01 07:40:19;;;;;;;34.72;13.85;;;-2.20;99.90;;;-2.07;100.00;99840.53;5027324;28;20122;-82
2023/12/01 07:42:50;;;;;;;37.72;14.05;;;-2.30;99.90;;;-1.89;100.00;99843.19;5026191;28;20087;-80
2023/12/01 07:45:17;;;;;;;33.30;13.95;;;-2.30;99.90;;;-1.69;100.00;99853.72;5018225;28;20089;-80
2023/12/01 07:47:54;;;;;;;32.78;13.23;;;-2.20;99.90;;;-1.24;100.00;99860.66;5033897;28;20171;-81
2023/12/01 07:50:21;;;;;;;32.40;13.60;;;-2.10;99.90;;;-1.15;100.00;99858.88;5025507;28;20094;-80
2023/12/01 07:52:49;;;;;;;37.80;13.70;;;-2.00;99.90;;;-1.06;100.00;99871.31;5021974;28;20046;-81
2023/12/01 07:55:16;;;;;;;33.20;13.07;;;-2.00;99.90;;;-1.04;100.00;99872.00;5018128;28;20033;-82
2023/12/01 07:57:43;;;;;;;32.92;13.57;;;-1.90;99.90;;;-0.92;100.00;99874.38;5015791;28;20516;-81
2023/12/01 08:00:16;;;;;;;28.42;12.85;;;-1.80;99.90;;;-0.89;100.00;99879.41;5032540;28;20129;-81
2023/12/01 08:02:52;;;;;;;27.27;11.73;;;-1.80;99.90;;;-0.90;100.00;99873.22;5016887;28;20457;-81
2023/12/01 08:05:19;;;;;;;26.27;11.95;;;-1.80;99.90;;;-0.96;100.00;99878.38;5027609;28;20046;-81
2023/12/01 08:07:52;;;;;;;27.60;11.77;;;-1.70;99.90;;;-0.95;100.00;99882.72;5024179;28;20046;-81
2023/12/01 08:10:20;;;;;;;28.30;12.30;;;-1.70;99.90;;;-1.08;100.00;99883.16;5016818;28;20045;-81
2023/12/01 08:12:49;;;;;;;28.33;11.95;;;-1.70;99.90;;;-0.87;100.00;99886.28;5031409;28;20046;-81
2023/12/01 08:15:15;;;;;;;29.80;12.80;;;-1.70;99.90;;;-0.90;100.00;99881.25;5058326;28;20041;-82
2023/12/01 08:17:44;;;;;;;30.75;13.07;;;-1.70;99.90;;;-0.63;100.00;99899.94;5038508;28;20049;-82
2023/12/01 08:20:10;;;;;;;28.48;12.32;;;-1.60;99.90;;;-0.63;100.00;99905.28;5034204;28;20037;-81
2023/12/01 08:22:37;;;;;;;30.00;11.98;;;-1.60;99.90;;;-0.67;100.00;99898.59;5037127;28;20044;-82
2023/12/01 08:25:05;;;;;;;28.92;11.85;;;-1.50;99.90;;;-0.75;100.00;99908.28;5030455;28;20145;-80
2023/12/01 08:27:31;;;;;;;25.95;12.40;;;-1.50;99.90;;;-0.64;100.00;99903.63;5023346;28;20099;-82
2023/12/01 08:29:57;;;;;;;29.05;12.98;;;-1.50;99.90;;;-1.09;100.00;99909.09;5016305;28;20045;-82
2023/12/01 08:32:22;;;;;;;30.17;13.25;;;-1.50;99.90;;;-0.94;100.00;99911.19;5018190;28;20583;-81
2023/12/01 08:34:50;;;;;;;28.38;12.80;;;-1.50;99.90;;;-0.81;100.00;99910.75;5021774;28;20939;-83
2023/12/01 08:37:16;;;;;;;;;;;-1.50;99.90;;;-0.67;100.00;99909.28;5019214;28;20034;-80
2023/12/01 08:39:44;;;;;;;28.02;12.73;;;-1.50;99.90;;;-0.57;100.00;99911.84;5025071;28;19936;-77
2023/12/01 08:42:09;;;;;;;30.92;12.57;;;-1.40;99.90;;;-0.54;100.00;99920.38;5018500;28;20034;-82
2023/12/01 08:44:35;;;;;;;26.13;12.23;;;-1.40;99.90;;;-0.68;100.00;99924.53;5020719;28;20045;-79
2023/12/01 08:47:02;;;;;;;27.52;11.98;;;-1.30;99.90;;;-0.78;100.00;99921.13;5013400;28;20057;-78
2023/12/01 08:49:27;;;;;;;28.50;11.85;;;-1.40;99.90;;;-0.83;100.00;99931.50;5035613;28;20481;-78
2023/12/01 08:51:55;;;;;;;23.08;11.75;;;-1.50;99.90;;;-0.59;100.00;99934.28;5019142;28;20057;-79
2023/12/01 08:54:24;;;;;;;19.48;10.43;;;-1.40;99.90;;;-0.38;100.00;99929.50;5014342;28;20450;-82
2023/12/01 08:56:50;;;;;;;23.48;11.15;;;-1.40;99.90;;;-0.68;100.00;99904.94;5021558;28;20401;-80
2023/12/01 08:59:19;;;;;;;17.30;7.70;;;-1.40;99.90;;;-1.26;100.00;99926.06;5020297;28;20038;-82
2023/12/01 09:01:44;;;;;;;19.42;9.55;;;-1.40;99.90;;;-1.50;100.00;99935.59;5018106;28;20088;-83
2023/12/01 09:04:10;;;;;;;23.65;10.52;;;-1.60;99.90;;;-1.32;100.00;99936.41;5013673;28;20077;-83
2023/12/01 09:06:38;;;;;;;21.33;9.95;;;-1.70;99.90;;;-1.27;100.00;99937.78;5022653;28;20501;-86
2023/12/01 09:09:07;;;;;;;20.35;9.45;;;-1.70;99.90;;;-1.49;100.00;99934.59;5015271;28;20042;-84
2023/12/01 09:11:33;;;;;;;20.10;9.48;;;-1.70;99.90;;;-1.29;100.00;99927.22;5010641;28;20048;-84
2023/12/01 09:13:58;;;;;;;21.60;9.98;;;-1.70;99.90;;;-0.95;100.00;99934.44;5033695;28;20393;-84
2023/12/01 09:16:24;;;;;;;19.73;9.57;;;-1.60;99.90;;;-0.77;100.00;99934.38;5022121;28;20046;-85
2023/12/01 09:18:50;;;;;;;19.52;10.05;;;-1.50;99.90;;;-0.63;100.00;99930.25;5024931;28;20041;-81
2023/12/01 09:21:17;;;;;;;19.48;9.95;;;-1.40;99.90;;;-0.40;100.00;99936.84;5017222;28;20149;-80
2023/12/01 09:23:44;;;;;;;17.67;9.07;;;-1.30;99.90;;;-0.36;100.00;99935.53;5022350;28;20041;-82
2023/12/01 09:26:19;;;;;;;17.97;9.17;;;-1.30;99.90;;;-0.54;100.00;99928.41;5011636;28;20512;-83
2023/12/01 09:28:47;;;;;;;19.65;9.18;;;-1.10;99.90;;;-0.31;100.00;99935.88;5021721;28;20107;-81
2023/12/01 09:31:13;;;;;;;20.02;9.20;;;-1.10;99.90;;;-0.25;100.00;99939.75;5016590;28;20038;-82
2023/12/01 09:33:39;;;;;;;17.50;9.18;;;-1.10;99.90;;;0.03;100.00;99940.31;5017653;28;20574;-81
2023/12/01 09:36:05;;;;;;;18.98;9.45;;;-1.00;99.90;;;0.13;100.00;99937.47;5020542;28;20037;-79
2023/12/01 09:38:31;;;;;;;17.67;9.20;;;-0.90;99.90;;;0.40;100.00;99941.69;5019138;28;20487;-80
2023/12/01 09:40:57;;;;;;;19.08;9.52;;;-0.70;99.90;;;0.41;100.00;99945.22;5018834;28;20033;-81
2023/12/01 09:43:23;;;;;;;15.25;8.68;;;-0.60;99.90;;;0.40;100.00;99939.00;5014446;28;20057;-79
2023/12/01 09:45:50;;;;;;;16.33;8.20;;;-0.50;99.90;;;0.47;100.00;99949.91;5018885;28;20062;-79
2023/12/01 09:48:19;;;;;;;17.30;9.38;;;-0.40;99.90;;;0.59;100.00;99958.47;5012785;28;20037;-79
2023/12/01 09:50:49;;;;;;;15.98;8.93;;;-0.40;99.90;;;0.33;100.00;99951.41;5010691;28;20052;-79
2023/12/01 09:53:19;;;;;;;15.57;8.70;;;-0.30;99.90;;;0.40;100.00;99949.75;5018873;28;20519;-79
2023/12/01 09:55:44;;;;;;;15.90;7.97;;;-0.20;99.90;;;0.60;100.00;99954.78;5013221;28;20034;-80
2023/12/01 09:58:10;;;;;;;14.75;8.00;;;-0.20;99.90;;;-0.08;100.00;99937.94;5019896;28;20474;-79
2023/12/01 10:00:36;;;;;;;14.18;7.65;;;-0.40;99.90;;;0.61;100.00;99943.03;5015959;28;20050;-79
2023/12/01 10:03:03;;;;;;;13.65;7.70;;;-0.30;99.90;;;0.71;100.00;99937.50;5019847;28;20053;-80
2023/12/01 10:05:35;;;;;;;16.83;8.25;;;-0.20;99.90;;;0.54;100.00;99936.66;5027135;28;20037;-80